createdAt,value
2022-10-14T00:01:22.858Z,9.70
2022-10-14T00:03:51.542Z,9.70
2022-10-14T00:06:21.541Z,9.60
2022-10-14T00:08:49.991Z,9.60
2022-10-14T00:11:20.808Z,9.60
2022-10-14T00:13:49.076Z,9.50
2022-10-14T00:16:21.080Z,9.60
2022-10-14T00:18:49.522Z,9.50
2022-10-14T00:21:18.164Z,9.50
2022-10-14T00:23:46.569Z,9.50
2022-10-14T00:26:19.140Z,9.50
2022-10-14T00:28:47.592Z,9.50
2022-10-14T00:31:16.061Z,9.40
2022-10-14T00:33:45.672Z,9.40
2022-10-14T00:36:16.021Z,9.40
2022-10-14T00:38:45.279Z,9.40
2022-10-14T00:41:15.008Z,9.40
2022-10-14T00:43:56.401Z,9.40
2022-10-14T00:46:25.175Z,9.40
2022-10-14T00:48:55.614Z,9.40
2022-10-14T00:51:23.846Z,9.40
2022-10-14T00:53:52.797Z,9.40
2022-10-14T00:56:26.180Z,9.50
2022-10-14T00:58:54.526Z,9.50
2022-10-14T01:01:22.829Z,9.50
2022-10-14T01:03:50.793Z,9.50
2022-10-14T01:06:31.962Z,9.50
2022-10-14T01:09:08.176Z,9.50
2022-10-14T01:11:45.918Z,9.60
2022-10-14T01:14:23.994Z,9.60
2022-10-14T01:17:00.126Z,9.50
2022-10-14T01:19:50.534Z,9.60
2022-10-14T01:22:25.212Z,9.60
2022-10-14T01:25:09.606Z,9.60
2022-10-14T01:27:55.690Z,9.60
2022-10-14T01:30:26.429Z,9.60
2022-10-14T01:33:08.473Z,9.60
2022-10-14T01:35:51.815Z,9.60
2022-10-14T01:38:28.117Z,9.60
2022-10-14T01:41:01.234Z,9.60
2022-10-14T01:43:31.548Z,9.60
2022-10-14T01:46:06.132Z,9.60
2022-10-14T01:48:37.898Z,9.60
2022-10-14T01:51:12.334Z,9.60
2022-10-14T01:53:43.855Z,9.60
2022-10-14T01:56:15.415Z,9.70
2022-10-14T01:58:44.645Z,9.70
2022-10-14T02:01:14.161Z,9.70
2022-10-14T02:03:44.474Z,9.70
2022-10-14T02:06:18.843Z,9.70
2022-10-14T02:09:00.459Z,9.70
2022-10-14T02:11:33.161Z,9.70
2022-10-14T02:14:11.192Z,9.70
2022-10-14T02:16:51.465Z,9.70
2022-10-14T02:19:26.949Z,9.70
2022-10-14T02:22:00.872Z,9.80
2022-10-14T02:24:34.709Z,9.80
2022-10-14T02:27:08.125Z,9.80
2022-10-14T02:29:37.448Z,9.80
2022-10-14T02:32:08.564Z,9.80
2022-10-14T02:34:38.141Z,9.70
2022-10-14T02:37:07.409Z,9.70
2022-10-14T02:39:40.217Z,9.80
2022-10-14T02:42:08.752Z,9.80
2022-10-14T02:44:36.721Z,9.80
2022-10-14T02:47:06.358Z,9.80
2022-10-14T02:49:34.406Z,9.80
2022-10-14T02:52:02.399Z,9.80
2022-10-14T02:54:30.596Z,9.80
2022-10-14T02:56:58.553Z,9.80
2022-10-14T02:59:26.584Z,9.70
2022-10-14T03:01:54.716Z,9.70
2022-10-14T03:04:24.285Z,9.80
2022-10-14T03:06:52.742Z,9.70
2022-10-14T03:09:21.269Z,9.70
2022-10-14T03:11:49.248Z,9.70
2022-10-14T03:14:17.426Z,9.70
2022-10-14T03:16:45.435Z,9.70
2022-10-14T03:19:13.494Z,9.70
2022-10-14T03:21:42.905Z,9.70
2022-10-14T03:24:11.146Z,9.70
2022-10-14T03:26:39.154Z,9.70
2022-10-14T03:29:07.152Z,9.70
2022-10-14T03:31:35.174Z,9.70
2022-10-14T03:34:03.591Z,9.70
2022-10-14T03:36:31.663Z,9.70
2022-10-14T03:39:01.112Z,9.70
2022-10-14T03:41:29.422Z,9.70
2022-10-14T03:43:57.435Z,9.70
2022-10-14T03:46:25.611Z,9.70
2022-10-14T03:48:54.128Z,9.70
2022-10-14T03:51:25.285Z,9.70
2022-10-14T03:53:53.294Z,9.70
2022-10-14T03:56:22.717Z,9.70
2022-10-14T03:58:50.692Z,9.70
2022-10-14T04:01:18.699Z,9.70
2022-10-14T04:03:50.961Z,9.70
2022-10-14T04:06:18.944Z,9.70
2022-10-14T04:08:46.941Z,9.70
2022-10-14T04:11:15.090Z,9.70
2022-10-14T04:13:45.283Z,9.80
2022-10-14T04:16:13.293Z,9.80
2022-10-14T04:18:41.388Z,9.70
2022-10-14T04:21:12.106Z,9.80
2022-10-14T04:23:40.342Z,9.80
2022-10-14T04:26:10.306Z,9.80
2022-10-14T04:28:39.064Z,9.80
2022-10-14T04:31:09.773Z,9.80
2022-10-14T04:33:37.809Z,9.80
2022-10-14T04:36:07.665Z,9.80
2022-10-14T04:38:35.668Z,9.80
2022-10-14T04:41:03.688Z,9.80
2022-10-14T04:43:31.802Z,9.80
2022-10-14T04:46:00.240Z,9.80
2022-10-14T04:48:29.594Z,9.80
2022-10-14T04:50:57.840Z,9.80
2022-10-14T04:53:27.020Z,9.80
2022-10-14T04:55:58.907Z,9.80
2022-10-14T04:58:26.895Z,9.80
2022-10-14T05:00:55.521Z,9.80
2022-10-14T05:03:23.668Z,9.80
2022-10-14T05:05:53.165Z,9.80
2022-10-14T05:08:21.170Z,9.90
2022-10-14T05:10:49.600Z,9.90
2022-10-14T05:13:18.684Z,9.90
2022-10-14T05:15:46.688Z,9.90
2022-10-14T05:18:14.964Z,9.90
2022-10-14T05:20:43.113Z,9.90
2022-10-14T05:23:12.583Z,9.90
2022-10-14T05:25:41.099Z,9.90
2022-10-14T05:28:09.113Z,10.00
2022-10-14T05:30:37.240Z,10.00
2022-10-14T05:33:05.657Z,10.00
2022-10-14T05:35:57.573Z,10.00
2022-10-14T05:38:24.023Z,10.00
2022-10-14T05:40:55.440Z,10.00
2022-10-14T05:43:29.309Z,10.00
2022-10-14T05:46:00.187Z,10.10
2022-10-14T05:48:28.275Z,10.10
2022-10-14T05:50:56.327Z,10.00
2022-10-14T05:53:26.158Z,10.00
2022-10-14T05:55:54.161Z,10.00
2022-10-14T05:58:22.417Z,10.00
2022-10-14T06:00:50.405Z,10.00
2022-10-14T06:03:18.476Z,9.90
2022-10-14T06:05:46.709Z,9.90
2022-10-14T06:08:15.888Z,9.90
2022-10-14T06:10:45.327Z,10.00
2022-10-14T06:13:13.430Z,10.00
2022-10-14T06:15:41.434Z,10.10
2022-10-14T06:18:09.441Z,10.20
2022-10-14T06:20:37.483Z,10.30
2022-10-14T06:23:05.614Z,10.40
2022-10-14T06:25:34.338Z,10.50
2022-10-14T06:28:07.119Z,10.50
2022-10-14T06:30:35.122Z,10.60
2022-10-14T06:33:03.145Z,10.60
2022-10-14T06:35:31.472Z,10.70
2022-10-14T06:37:59.585Z,10.70
2022-10-14T06:40:27.617Z,10.80
2022-10-14T06:42:55.617Z,11.00
2022-10-14T06:45:24.976Z,11.70
2022-10-14T06:47:52.959Z,12.20
2022-10-14T06:50:20.976Z,12.90
2022-10-14T06:52:49.392Z,13.20
2022-10-14T06:55:17.493Z,13.00
2022-10-14T06:57:45.606Z,12.80
2022-10-14T07:00:14.330Z,12.50
2022-10-14T07:02:44.264Z,12.40
2022-10-14T07:05:14.575Z,12.80
2022-10-14T07:07:42.635Z,13.60
2022-10-14T07:10:10.975Z,14.30
2022-10-14T07:12:38.961Z,15.10
2022-10-14T07:15:08.056Z,15.60
2022-10-14T07:17:36.050Z,16.00
2022-10-14T07:20:06.159Z,16.80
2022-10-14T07:22:38.661Z,17.60
2022-10-14T07:25:08.351Z,18.00
2022-10-14T07:27:36.508Z,18.40
2022-10-14T07:30:05.438Z,18.50
2022-10-14T07:32:36.797Z,18.60
2022-10-14T07:35:08.913Z,18.60
2022-10-14T07:37:36.949Z,18.70
2022-10-14T07:40:05.684Z,18.80
2022-10-14T07:42:33.688Z,19.30
2022-10-14T07:45:01.948Z,19.60
2022-10-14T07:47:29.944Z,19.80
2022-10-14T07:49:57.958Z,19.90
2022-10-14T07:52:27.410Z,19.90
2022-10-14T07:54:55.446Z,20.00
2022-10-14T07:57:24.249Z,20.20
2022-10-14T07:59:53.376Z,20.10
2022-10-14T08:02:21.448Z,19.60
2022-10-14T08:05:04.153Z,19.30
2022-10-14T08:07:42.731Z,19.00
2022-10-14T08:10:11.713Z,18.80
2022-10-14T08:12:42.636Z,18.60
2022-10-14T08:15:11.307Z,18.40
2022-10-14T08:17:39.314Z,18.20
2022-10-14T08:20:08.717Z,18.00
2022-10-14T08:22:36.782Z,17.90
2022-10-14T08:25:06.959Z,17.70
2022-10-14T08:27:34.944Z,17.60
2022-10-14T08:30:07.316Z,17.40
2022-10-14T08:32:39.074Z,17.30
2022-10-14T08:35:08.459Z,17.20
2022-10-14T08:37:36.461Z,17.10
2022-10-14T08:40:07.278Z,17.00
2022-10-14T08:42:44.250Z,17.00
2022-10-14T08:45:16.343Z,16.90
2022-10-14T08:47:46.717Z,16.80
2022-10-14T08:50:24.876Z,16.70
2022-10-14T08:52:57.610Z,16.60
2022-10-14T08:55:33.779Z,16.50
2022-10-14T08:58:11.217Z,16.50
2022-10-14T09:00:43.182Z,16.50
2022-10-14T09:03:19.527Z,16.50
2022-10-14T09:05:52.819Z,16.70
2022-10-14T09:08:28.041Z,17.00
2022-10-14T09:10:58.037Z,17.20
2022-10-14T09:13:32.091Z,17.20
2022-10-14T09:16:04.992Z,17.00
2022-10-14T09:18:37.849Z,17.00
2022-10-14T09:21:40.685Z,17.10
2022-10-14T09:24:16.622Z,17.30
2022-10-14T09:26:48.273Z,17.50
2022-10-14T09:29:25.750Z,17.70
2022-10-14T09:31:56.589Z,17.80
2022-10-14T09:34:30.569Z,18.10
2022-10-14T09:37:06.362Z,18.10
2022-10-14T09:39:39.225Z,18.20
2022-10-14T09:42:16.552Z,18.20
2022-10-14T09:44:44.600Z,18.10
2022-10-14T09:47:19.257Z,18.10
2022-10-14T09:49:49.189Z,18.10
2022-10-14T09:52:24.016Z,18.20
2022-10-14T09:54:58.750Z,18.30
2022-10-14T09:57:29.238Z,18.20
2022-10-14T10:00:00.661Z,18.20
2022-10-14T10:02:41.866Z,18.10
2022-10-14T10:05:14.009Z,18.10
2022-10-14T10:07:42.053Z,18.00
2022-10-14T10:10:20.011Z,18.00
2022-10-14T10:12:51.708Z,18.00
2022-10-14T10:15:22.272Z,18.00
2022-10-14T10:17:51.201Z,18.00
2022-10-14T10:20:31.864Z,18.00
2022-10-14T10:23:17.199Z,18.10
2022-10-14T10:25:45.275Z,18.10
2022-10-14T10:28:20.946Z,18.10
2022-10-14T10:31:03.947Z,18.10
2022-10-14T10:33:43.566Z,18.20
2022-10-14T10:36:21.291Z,18.20
2022-10-14T10:38:59.350Z,18.30
2022-10-14T10:41:43.434Z,18.30
2022-10-14T10:44:25.627Z,18.40
2022-10-14T10:47:07.690Z,18.40
2022-10-14T10:50:10.184Z,18.40
2022-10-14T10:52:52.968Z,18.40
2022-10-14T10:55:32.374Z,18.40
2022-10-14T10:58:10.780Z,18.40
2022-10-14T11:00:49.966Z,18.40
2022-10-14T11:03:43.817Z,18.50
2022-10-14T11:06:38.491Z,18.70
2022-10-14T11:09:33.797Z,18.80
2022-10-14T11:12:14.076Z,18.90
2022-10-14T11:17:59.147Z,19.00
2022-10-14T11:20:39.266Z,18.90
2022-10-14T11:23:30.100Z,19.00
2022-10-14T11:26:07.127Z,19.00
2022-10-14T11:28:41.673Z,19.00
2022-10-14T11:31:20.344Z,18.90
2022-10-14T11:34:08.612Z,18.90
2022-10-14T11:36:45.914Z,19.10
2022-10-14T11:39:35.779Z,19.10
2022-10-14T11:42:16.016Z,19.00
2022-10-14T11:44:45.397Z,19.00
2022-10-14T11:47:19.833Z,19.00
2022-10-14T11:49:55.779Z,19.00
2022-10-14T11:52:28.732Z,19.00
2022-10-14T11:55:02.421Z,19.00
2022-10-14T11:57:35.342Z,19.00
2022-10-14T12:00:23.625Z,19.00
2022-10-14T12:02:57.767Z,19.00
2022-10-14T12:05:36.261Z,19.00
2022-10-14T12:08:14.689Z,19.00
2022-10-14T12:10:49.004Z,19.00
2022-10-14T12:13:20.924Z,19.00
2022-10-14T12:15:53.629Z,18.90
2022-10-14T12:18:22.661Z,18.80
2022-10-14T12:20:59.348Z,18.80
2022-10-14T12:23:34.745Z,18.80
2022-10-14T12:26:09.848Z,18.60
2022-10-14T12:28:38.792Z,18.60
2022-10-14T12:31:35.561Z,18.40
2022-10-14T12:34:31.199Z,18.30
2022-10-14T12:37:00.557Z,18.40
2022-10-14T12:39:33.854Z,18.40
2022-10-14T12:42:04.952Z,18.30
2022-10-14T12:44:43.712Z,18.30
2022-10-14T12:47:21.042Z,18.30
2022-10-14T12:49:52.893Z,18.30
2022-10-14T12:52:28.316Z,18.20
2022-10-14T12:54:56.949Z,18.20
2022-10-14T12:57:32.108Z,18.20
2022-10-14T13:00:08.060Z,18.10
2022-10-14T13:02:39.096Z,18.10
2022-10-14T13:05:09.893Z,18.10
2022-10-14T13:07:45.836Z,18.10
2022-10-14T13:10:54.857Z,18.10
2022-10-14T13:13:52.842Z,18.10
2022-10-14T13:16:56.390Z,18.00
2022-10-14T13:19:44.530Z,18.00
2022-10-14T13:22:41.115Z,18.00
2022-10-14T13:25:16.573Z,17.90
2022-10-14T13:27:55.664Z,17.90
2022-10-14T13:30:33.751Z,17.90
2022-10-14T13:33:13.049Z,17.90
2022-10-14T13:35:50.040Z,17.90
2022-10-14T13:38:20.312Z,17.90
2022-10-14T13:40:51.050Z,17.90
2022-10-14T13:43:22.469Z,17.90
2022-10-14T13:45:54.037Z,18.00
2022-10-14T13:48:30.592Z,18.00
2022-10-14T13:51:31.773Z,17.90
2022-10-14T13:54:17.131Z,18.00
2022-10-14T13:57:19.860Z,17.90
2022-10-14T14:00:22.529Z,17.90
2022-10-14T14:02:36.143Z,17.80
2022-10-14T14:05:04.250Z,17.80
2022-10-14T14:08:08.380Z,17.70
2022-10-14T14:10:27.595Z,17.70
2022-10-14T14:12:57.046Z,17.60
2022-10-14T14:15:27.679Z,17.60
2022-10-14T14:17:55.975Z,17.60
2022-10-14T14:20:30.525Z,17.50
2022-10-14T14:22:59.816Z,17.50
2022-10-14T14:25:50.652Z,17.50
2022-10-14T14:28:19.911Z,17.50
2022-10-14T14:30:54.602Z,17.50
2022-10-14T14:33:28.899Z,17.50
2022-10-14T14:35:59.201Z,17.50
2022-10-14T14:38:29.741Z,17.50
2022-10-14T14:41:06.186Z,17.40
2022-10-14T14:43:39.784Z,17.30
2022-10-14T14:46:20.504Z,17.20
2022-10-14T14:48:54.423Z,17.20
2022-10-14T14:51:23.226Z,17.10
2022-10-14T14:53:53.974Z,17.10
2022-10-14T14:56:27.538Z,17.00
2022-10-14T14:59:00.667Z,16.90
2022-10-14T15:01:31.044Z,16.90
2022-10-14T15:04:13.556Z,16.80
2022-10-14T15:06:51.193Z,16.70
2022-10-14T15:09:25.026Z,16.70
2022-10-14T15:11:55.669Z,16.60
2022-10-14T15:14:32.936Z,16.70
2022-10-14T15:17:01.067Z,16.60
2022-10-14T15:19:38.362Z,16.70
2022-10-14T15:22:37.006Z,16.60
2022-10-14T15:25:23.759Z,16.60
2022-10-14T15:27:56.332Z,16.50
2022-10-14T15:30:34.906Z,16.50
2022-10-14T15:33:11.944Z,16.50
2022-10-14T15:35:40.161Z,16.40
2022-10-14T15:38:16.368Z,16.40
2022-10-14T15:40:45.350Z,16.30
2022-10-14T15:43:17.503Z,16.30
2022-10-14T15:46:11.627Z,16.20
2022-10-14T15:48:40.607Z,16.10
2022-10-14T15:51:08.607Z,16.10
2022-10-14T15:53:36.704Z,16.00
2022-10-14T15:56:04.746Z,16.00
2022-10-14T15:58:36.562Z,15.90
2022-10-14T16:01:07.289Z,15.80
2022-10-14T16:03:37.259Z,15.80
2022-10-14T16:06:09.040Z,15.70
2022-10-14T16:08:37.788Z,15.70
2022-10-14T16:11:06.570Z,15.60
2022-10-14T16:13:34.631Z,15.60
2022-10-14T16:16:07.245Z,15.50
2022-10-14T16:18:35.240Z,15.50
2022-10-14T16:21:03.502Z,15.40
2022-10-14T16:23:33.369Z,15.40
2022-10-14T16:26:01.963Z,15.40
2022-10-14T16:28:30.032Z,15.30
2022-10-14T16:30:59.984Z,15.30
2022-10-14T16:33:29.736Z,15.30
2022-10-14T16:36:00.031Z,15.20
2022-10-14T16:38:28.194Z,15.20
2022-10-14T16:40:57.403Z,15.10
2022-10-14T16:43:25.933Z,15.10
2022-10-14T16:45:54.385Z,15.00
2022-10-14T16:48:22.602Z,15.00
2022-10-14T16:50:52.845Z,15.00
2022-10-14T16:53:38.531Z,14.90
2022-10-14T16:56:28.669Z,14.90
2022-10-14T16:58:57.808Z,14.80
2022-10-14T17:01:25.957Z,14.80
2022-10-14T17:03:56.474Z,14.70
2022-10-14T17:06:26.776Z,14.70
2022-10-14T17:08:55.042Z,14.70
2022-10-14T17:11:23.746Z,14.60
2022-10-14T17:13:54.621Z,14.60
2022-10-14T17:16:23.300Z,14.50
2022-10-14T17:18:52.960Z,14.60
2022-10-14T17:21:20.960Z,14.50
2022-10-14T17:23:51.402Z,14.50
2022-10-14T17:26:20.805Z,14.50
2022-10-14T17:28:51.480Z,14.40
2022-10-14T17:31:22.578Z,14.40
2022-10-14T17:33:51.497Z,14.40
2022-10-14T17:36:21.059Z,14.40
2022-10-14T17:38:52.325Z,14.30
2022-10-14T17:41:20.667Z,14.30
2022-10-14T17:43:50.168Z,14.30
2022-10-14T17:46:21.101Z,14.30
2022-10-14T17:48:51.409Z,14.30
2022-10-14T17:51:23.396Z,14.30
2022-10-14T17:53:58.352Z,14.20
2022-10-14T17:56:27.297Z,14.20
2022-10-14T17:58:56.943Z,14.20
2022-10-14T18:01:37.326Z,14.20
2022-10-14T18:04:14.512Z,14.20
2022-10-14T18:06:45.682Z,14.10
2022-10-14T18:09:15.131Z,14.10
2022-10-14T18:14:33.996Z,14.10
2022-10-14T18:17:02.017Z,14.10
2022-10-14T18:19:30.210Z,14.10
2022-10-14T18:21:58.200Z,14.10
2022-10-14T18:24:27.982Z,14.10
2022-10-14T18:26:56.011Z,14.10
2022-10-14T18:29:24.825Z,14.00
2022-10-14T18:34:22.319Z,14.00
2022-10-14T18:36:50.463Z,14.00
2022-10-14T18:39:20.121Z,14.00
2022-10-14T18:41:49.540Z,14.00
2022-10-14T18:44:18.019Z,13.90
2022-10-14T18:46:47.496Z,13.90
2022-10-14T18:49:15.937Z,13.90
2022-10-14T18:51:44.351Z,13.90
2022-10-14T18:54:15.974Z,13.90
2022-10-14T18:56:44.809Z,13.90
2022-10-14T18:59:17.843Z,13.90
2022-10-14T19:01:54.332Z,13.80
2022-10-14T19:04:24.087Z,13.80
2022-10-14T19:06:52.257Z,13.80
2022-10-14T19:09:24.597Z,13.80
2022-10-14T19:11:53.666Z,13.80
2022-10-14T19:14:23.057Z,13.80
2022-10-14T19:16:51.290Z,13.70
2022-10-14T19:19:21.037Z,13.70
2022-10-14T19:21:54.683Z,13.70
2022-10-14T19:24:22.875Z,13.70
2022-10-14T19:26:55.212Z,13.70
2022-10-14T19:29:24.643Z,13.70
2022-10-14T19:31:54.920Z,13.70
2022-10-14T19:34:26.724Z,13.70
2022-10-14T19:36:56.425Z,13.60
2022-10-14T19:39:29.427Z,13.60
2022-10-14T19:41:57.802Z,13.60
2022-10-14T19:44:27.356Z,13.60
2022-10-14T19:47:01.015Z,13.60
2022-10-14T19:49:32.510Z,13.60
2022-10-14T19:52:00.512Z,13.60
2022-10-14T19:54:30.951Z,13.50
2022-10-14T19:56:58.983Z,13.60
2022-10-14T19:59:28.505Z,13.50
2022-10-14T20:01:58.934Z,13.50
2022-10-14T20:04:29.445Z,13.50
2022-10-14T20:06:59.830Z,13.50
2022-10-14T20:09:27.833Z,13.50
2022-10-14T20:11:55.889Z,13.50
2022-10-14T20:14:23.979Z,13.50
2022-10-14T20:16:55.857Z,13.50
2022-10-14T20:19:26.449Z,13.50
2022-10-14T20:21:57.871Z,13.40
2022-10-14T20:24:28.575Z,13.50
2022-10-14T20:26:56.778Z,13.40
2022-10-14T20:29:24.819Z,13.40
2022-10-14T20:31:54.515Z,13.40
2022-10-14T20:34:22.708Z,13.40
2022-10-14T20:36:50.944Z,13.40
2022-10-14T20:39:18.937Z,13.40
2022-10-14T20:41:48.114Z,13.40
2022-10-14T20:44:19.199Z,13.40
2022-10-14T20:46:51.007Z,13.40
2022-10-14T20:49:23.114Z,13.40
2022-10-14T20:51:51.128Z,13.30
2022-10-14T20:54:19.111Z,13.30
2022-10-14T20:56:47.174Z,13.30
2022-10-14T20:59:18.178Z,13.30
2022-10-14T21:01:46.447Z,13.30
2022-10-14T21:04:14.475Z,13.30
2022-10-14T21:06:43.833Z,13.30
2022-10-14T21:09:11.892Z,13.30
2022-10-14T21:11:40.108Z,13.30
2022-10-14T21:14:08.152Z,13.20
2022-10-14T21:16:40.770Z,13.20
2022-10-14T21:19:10.521Z,13.20
2022-10-14T21:21:40.337Z,13.20
2022-10-14T21:24:14.473Z,13.20
2022-10-14T21:26:42.593Z,13.20
2022-10-14T21:29:11.122Z,13.20
2022-10-14T21:31:40.668Z,13.20
2022-10-14T21:34:08.929Z,13.20
2022-10-14T21:36:37.790Z,13.20
2022-10-14T21:39:11.201Z,13.20
2022-10-14T21:41:40.329Z,13.20
2022-10-14T21:44:08.893Z,13.20
2022-10-14T21:46:37.377Z,13.20
2022-10-14T21:49:05.836Z,13.20
2022-10-14T21:51:33.967Z,13.10
2022-10-14T21:54:02.011Z,13.10
2022-10-14T21:56:32.255Z,13.10
2022-10-14T21:59:00.319Z,13.10
2022-10-14T22:01:30.629Z,13.10
2022-10-14T22:04:01.067Z,13.10
2022-10-14T22:06:29.734Z,13.10
2022-10-14T22:08:59.579Z,13.10
2022-10-14T22:11:29.928Z,13.10
2022-10-14T22:14:01.268Z,13.10
2022-10-14T22:16:29.977Z,13.10
2022-10-14T22:19:00.363Z,13.00
2022-10-14T22:21:30.358Z,13.00
2022-10-14T22:23:59.112Z,13.00
2022-10-14T22:26:29.123Z,13.00
2022-10-14T22:29:03.529Z,13.00
2022-10-14T22:31:33.873Z,13.00
2022-10-14T22:34:02.818Z,13.00
2022-10-14T22:36:32.190Z,13.00
2022-10-14T22:39:01.593Z,13.00
2022-10-14T22:41:34.999Z,13.00
2022-10-14T22:44:06.669Z,13.00
2022-10-14T22:46:39.586Z,13.00
2022-10-14T22:49:07.804Z,13.00
2022-10-14T22:51:40.174Z,13.00
2022-10-14T22:54:08.341Z,13.00
2022-10-14T22:56:36.346Z,12.90
2022-10-14T22:59:07.544Z,12.90
2022-10-14T23:01:35.620Z,12.90
2022-10-14T23:04:04.281Z,12.90
2022-10-14T23:06:35.259Z,12.90
2022-10-14T23:09:03.284Z,12.80
2022-10-14T23:11:32.678Z,12.90
2022-10-14T23:14:03.014Z,12.80
2022-10-14T23:16:37.628Z,12.80
2022-10-14T23:19:05.882Z,12.80
2022-10-14T23:21:35.629Z,12.80
2022-10-14T23:24:05.726Z,12.70
2022-10-14T23:26:35.441Z,12.70
2022-10-14T23:29:06.174Z,12.60
2022-10-14T23:31:36.005Z,12.60
2022-10-14T23:34:07.129Z,12.60
2022-10-14T23:36:35.558Z,12.60
2022-10-14T23:39:04.182Z,12.50
2022-10-14T23:41:32.239Z,12.50
2022-10-14T23:44:00.207Z,12.40
2022-10-14T23:46:28.270Z,12.40
2022-10-14T23:49:06.852Z,12.30
2022-10-14T23:51:44.095Z,12.30
2022-10-14T23:54:13.524Z,12.30
2022-10-14T23:56:41.656Z,12.30
2022-10-14T23:59:09.661Z,12.30
